createdAt,value
2018-09-28T00:01:16.205Z,101814.57
2018-09-28T00:03:44.760Z,101812.70
2018-09-28T00:06:13.257Z,101814.27
2018-09-28T00:08:41.842Z,101812.70
2018-09-28T00:11:10.469Z,101809.70
2018-09-28T00:13:38.990Z,101811.67
2018-09-28T00:16:07.545Z,101819.47
2018-09-28T00:18:36.085Z,101821.16
2018-09-28T00:21:05.633Z,101823.45
2018-09-28T00:23:34.134Z,101817.70
2018-09-28T00:26:03.831Z,101819.48
2018-09-28T00:28:32.316Z,101805.81
2018-09-28T00:31:00.901Z,101806.78
2018-09-28T00:33:29.533Z,101812.40
2018-09-28T00:35:58.269Z,101813.92
2018-09-28T00:38:26.705Z,101803.25
2018-09-28T00:40:55.949Z,101801.60
2018-09-28T00:43:24.597Z,101800.89
2018-09-28T00:45:53.157Z,101798.77
2018-09-28T00:48:21.643Z,101803.92
2018-09-28T00:50:50.607Z,101803.06
2018-09-28T00:53:19.107Z,101799.97
2018-09-28T00:55:47.628Z,101794.39
2018-09-28T00:58:16.169Z,101797.92
2018-09-28T01:00:44.681Z,101785.80
2018-09-28T01:03:13.298Z,101797.50
2018-09-28T01:05:41.812Z,101790.59
2018-09-28T01:08:10.313Z,101787.72
2018-09-28T01:10:38.849Z,101788.47
2018-09-28T01:13:09.510Z,101787.78
2018-09-28T01:15:38.049Z,101782.39
2018-09-28T01:18:06.751Z,101793.50
2018-09-28T01:20:35.641Z,101795.80
2018-09-28T01:23:05.225Z,101802.31
2018-09-28T01:25:33.881Z,101788.98
2018-09-28T01:28:03.741Z,101788.99
2018-09-28T01:30:32.332Z,101785.82
2018-09-28T01:33:00.917Z,101793.97
2018-09-28T01:35:29.433Z,101801.21
2018-09-28T01:37:58.014Z,101794.41
2018-09-28T01:40:26.614Z,101794.89
2018-09-28T01:42:55.164Z,101793.97
2018-09-28T01:45:23.859Z,101789.98
2018-09-28T01:47:52.394Z,101797.59
2018-09-28T01:50:21.907Z,101796.48
2018-09-28T01:52:50.445Z,101803.18
2018-09-28T01:55:19.177Z,101806.09
2018-09-28T01:57:47.768Z,101800.61
2018-09-28T02:00:16.289Z,101794.89
2018-09-28T02:02:45.030Z,101794.41
2018-09-28T02:05:13.626Z,101792.25
2018-09-28T02:07:42.163Z,101801.30
2018-09-28T02:10:10.962Z,101798.20
2018-09-28T02:12:39.577Z,101791.88
2018-09-28T02:15:08.088Z,101793.31
2018-09-28T02:17:36.660Z,101785.47
2018-09-28T02:20:05.228Z,101792.73
2018-09-28T02:22:35.598Z,101794.97
2018-09-28T02:25:05.675Z,101790.58
2018-09-28T02:27:34.216Z,101799.66
2018-09-28T02:30:04.664Z,101794.76
2018-09-28T02:32:33.222Z,101790.89
2018-09-28T02:35:03.102Z,101805.17
2018-09-28T02:37:31.665Z,101798.98
2018-09-28T02:40:00.219Z,101810.08
2018-09-28T02:42:28.841Z,101806.73
2018-09-28T02:44:57.391Z,101812.25
2018-09-28T02:47:25.920Z,101812.52
2018-09-28T02:49:54.476Z,101808.06
2018-09-28T02:52:23.005Z,101814.49
2018-09-28T02:54:51.500Z,101818.72
2018-09-28T02:57:20.035Z,101823.19
2018-09-28T02:59:48.555Z,101825.98
2018-09-28T03:02:17.070Z,101825.47
2018-09-28T03:04:45.613Z,101829.94
2018-09-28T03:07:14.134Z,101834.33
2018-09-28T03:09:42.670Z,101831.61
2018-09-28T03:12:11.212Z,101829.94
2018-09-28T03:14:39.973Z,101833.70
2018-09-28T03:17:08.569Z,101846.47
2018-09-28T03:19:37.071Z,101844.66
2018-09-28T03:22:05.662Z,101852.61
2018-09-28T03:24:36.439Z,101856.10
2018-09-28T03:27:08.192Z,101845.03
2018-09-28T03:29:36.731Z,101850.92
2018-09-28T03:32:05.247Z,101855.52
2018-09-28T03:34:33.850Z,101864.97
2018-09-28T03:37:03.877Z,101856.36
2018-09-28T03:39:32.382Z,101858.62
2018-09-28T03:42:03.095Z,101871.23
2018-09-28T03:44:31.580Z,101864.95
2018-09-28T03:47:00.202Z,101871.86
2018-09-28T03:49:28.812Z,101869.66
2018-09-28T03:51:57.662Z,101872.98
2018-09-28T03:54:26.188Z,101867.61
2018-09-28T03:56:54.748Z,101871.48
2018-09-28T03:59:23.395Z,101875.49
2018-09-28T04:01:52.013Z,101886.45
2018-09-28T04:04:20.568Z,101886.45
2018-09-28T04:06:49.291Z,101890.14
2018-09-28T04:09:17.765Z,101884.63
2018-09-28T04:11:46.317Z,101886.50
2018-09-28T04:14:16.512Z,101892.31
2018-09-28T04:16:45.044Z,101893.80
2018-09-28T04:19:13.580Z,101893.95
2018-09-28T04:21:46.290Z,101900.75
2018-09-28T04:24:14.832Z,101910.55
2018-09-28T04:26:43.561Z,101915.52
2018-09-28T04:29:12.080Z,101918.72
2018-09-28T04:31:40.599Z,101919.79
2018-09-28T04:34:09.383Z,101922.52
2018-09-28T04:36:37.938Z,101931.27
2018-09-28T04:39:08.411Z,101934.31
2018-09-28T04:41:36.964Z,101937.84
2018-09-28T04:44:08.687Z,101943.95
2018-09-28T04:46:38.169Z,101950.44
2018-09-28T04:49:06.935Z,101954.52
2018-09-28T04:51:35.779Z,101954.83
2018-09-28T04:54:05.344Z,101957.47
2018-09-28T04:56:33.843Z,101957.98
2018-09-28T04:59:03.803Z,101960.62
2018-09-28T05:01:32.291Z,101973.98
2018-09-28T05:04:03.115Z,101976.70
2018-09-28T05:06:31.642Z,101983.94
2018-09-28T05:09:00.356Z,101988.11
2018-09-28T05:11:28.863Z,101990.45
2018-09-28T05:13:57.361Z,101992.02
2018-09-28T05:16:25.899Z,101993.05
2018-09-28T05:18:54.383Z,101999.34
2018-09-28T05:21:22.946Z,102002.77
2018-09-28T05:23:51.477Z,102009.69
2018-09-28T05:26:20.028Z,102013.05
2018-09-28T05:28:48.524Z,102018.25
2018-09-28T05:31:18.245Z,102012.09
2018-09-28T05:33:46.813Z,102015.88
2018-09-28T05:36:15.369Z,102024.65
2018-09-28T05:38:43.864Z,102027.77
2018-09-28T05:41:12.505Z,102037.64
2018-09-28T05:43:41.051Z,102035.32
2018-09-28T05:46:09.623Z,102037.31
2018-09-28T05:48:38.800Z,102044.84
2018-09-28T05:51:07.761Z,102043.93
2018-09-28T05:53:36.588Z,102040.37
2018-09-28T05:56:05.552Z,102043.82
2018-09-28T05:58:39.304Z,102045.70
2018-09-28T06:01:13.165Z,102052.41
2018-09-28T06:03:46.844Z,102049.01
2018-09-28T06:06:15.374Z,102065.52
2018-09-28T06:08:43.884Z,102071.11
2018-09-28T06:11:12.392Z,102076.72
2018-09-28T06:13:40.904Z,102084.16
2018-09-28T06:16:09.428Z,102080.80
2018-09-28T06:18:38.080Z,102093.45
2018-09-28T06:21:07.004Z,102090.56
2018-09-28T06:23:35.478Z,102099.15
2018-09-28T06:26:06.739Z,102111.38
2018-09-28T06:28:35.281Z,102118.37
2018-09-28T06:31:05.765Z,102123.30
2018-09-28T06:33:34.285Z,102125.30
2018-09-28T06:36:04.487Z,102127.27
2018-09-28T06:38:33.046Z,102128.52
2018-09-28T06:41:02.748Z,102135.92
2018-09-28T06:43:31.252Z,102135.63
2018-09-28T06:45:59.769Z,102144.84
2018-09-28T06:48:28.311Z,102148.50
2018-09-28T06:50:56.854Z,102146.82
2018-09-28T06:53:25.356Z,102158.30
2018-09-28T06:55:53.914Z,102165.32
2018-09-28T06:58:22.538Z,102169.00
2018-09-28T07:00:51.196Z,102165.00
2018-09-28T07:03:19.708Z,102176.19
2018-09-28T07:05:48.273Z,102180.27
2018-09-28T07:08:16.750Z,102183.48
2018-09-28T07:10:45.791Z,102182.70
2018-09-28T07:13:14.672Z,102187.28
2018-09-28T07:15:43.271Z,102191.12
2018-09-28T07:18:11.837Z,102197.17
2018-09-28T07:20:40.333Z,102204.06
2018-09-28T07:23:08.905Z,102205.50
2018-09-28T07:25:42.900Z,102204.20
2018-09-28T07:28:11.542Z,102207.41
2018-09-28T07:30:40.126Z,102213.23
2018-09-28T07:33:08.894Z,102211.22
2018-09-28T07:35:37.427Z,102220.92
2018-09-28T07:38:05.973Z,102224.40
2018-09-28T07:40:34.849Z,102223.28
2018-09-28T07:43:04.424Z,102215.31
2018-09-28T07:45:32.948Z,102229.77
2018-09-28T07:48:02.871Z,102229.83
2018-09-28T07:50:31.780Z,102228.30
2018-09-28T07:53:00.308Z,102233.37
2018-09-28T07:55:28.873Z,102247.20
2018-09-28T07:57:57.408Z,102243.55
2018-09-28T08:00:25.947Z,102243.28
2018-09-28T08:02:54.479Z,102242.61
2018-09-28T08:05:22.981Z,102249.73
2018-09-28T08:07:51.612Z,102253.50
2018-09-28T08:10:20.150Z,102253.77
2018-09-28T08:12:48.747Z,102255.23
2018-09-28T08:15:17.254Z,102267.64
2018-09-28T08:17:45.904Z,102262.91
2018-09-28T08:20:14.428Z,102269.12
2018-09-28T08:22:42.936Z,102270.98
2018-09-28T08:25:11.476Z,102273.23
2018-09-28T08:27:39.987Z,102281.28
2018-09-28T08:30:08.563Z,102284.47
2018-09-28T08:32:37.068Z,102288.54
2018-09-28T08:35:06.055Z,102294.16
2018-09-28T08:37:34.564Z,102299.69
2018-09-28T08:40:05.253Z,102292.02
2018-09-28T08:42:33.761Z,102285.73
2018-09-28T08:45:04.209Z,102283.19
2018-09-28T08:47:33.024Z,102293.66
2018-09-28T08:50:04.601Z,102292.08
2018-09-28T08:52:33.174Z,102299.57
2018-09-28T08:55:03.088Z,102295.41
2018-09-28T08:57:31.634Z,102299.89
2018-09-28T09:00:00.165Z,102298.70
2018-09-28T09:02:28.718Z,102296.91
2018-09-28T09:04:57.406Z,102304.05
2018-09-28T09:07:26.365Z,102305.70
2018-09-28T09:09:54.881Z,102305.48
2018-09-28T09:12:24.403Z,102311.79
2018-09-28T09:14:53.016Z,102314.24
2018-09-28T09:17:21.551Z,102321.94
2018-09-28T09:19:50.112Z,102319.70
2018-09-28T09:22:18.649Z,102327.52
2018-09-28T09:24:47.525Z,102326.17
2018-09-28T09:27:16.040Z,102326.30
2018-09-28T09:29:44.578Z,102332.75
2018-09-28T09:32:13.101Z,102334.20
2018-09-28T09:34:41.678Z,102331.04
2018-09-28T09:37:10.231Z,102332.94
2018-09-28T09:39:38.771Z,102327.39
2018-09-28T09:42:07.307Z,102325.97
2018-09-28T09:44:36.077Z,102337.59
2018-09-28T09:47:05.686Z,102335.36
2018-09-28T09:49:34.251Z,102339.91
2018-09-28T09:52:06.154Z,102338.72
2018-09-28T09:54:34.685Z,102334.17
2018-09-28T09:57:07.233Z,102329.17
2018-09-28T09:59:35.768Z,102328.49
2018-09-28T10:02:10.488Z,102339.88
2018-09-28T10:04:39.179Z,102348.11
2018-09-28T10:07:07.879Z,102345.47
2018-09-28T10:09:36.407Z,102346.15
2018-09-28T10:12:05.028Z,102347.72
2018-09-28T10:14:33.558Z,102355.66
2018-09-28T10:17:03.826Z,102359.77
2018-09-28T10:19:32.416Z,102347.42
2018-09-28T10:22:03.148Z,102345.23
2018-09-28T10:24:31.638Z,102344.64
2018-09-28T10:27:00.216Z,102344.70
2018-09-28T10:29:28.946Z,102342.67
2018-09-28T10:32:04.505Z,102355.84
2018-09-28T10:34:33.092Z,102357.39
2018-09-28T10:37:03.195Z,102357.77
2018-09-28T10:39:32.843Z,102351.01
2018-09-28T10:42:04.078Z,102368.59
2018-09-28T10:44:32.685Z,102362.74
2018-09-28T10:47:03.211Z,102368.41
2018-09-28T10:49:31.729Z,102364.18
2018-09-28T10:52:00.448Z,102363.06
2018-09-28T10:54:28.897Z,102366.42
2018-09-28T10:56:57.436Z,102366.17
2018-09-28T10:59:25.921Z,102361.25
2018-09-28T11:01:54.456Z,102361.41
2018-09-28T11:04:24.636Z,102357.08
2018-09-28T11:06:53.172Z,102352.68
2018-09-28T11:09:21.800Z,102351.66
2018-09-28T11:11:50.424Z,102355.80
2018-09-28T11:14:19.274Z,102356.51
2018-09-28T11:16:48.139Z,102356.17
2018-09-28T11:19:16.633Z,102358.08
2018-09-28T11:21:45.209Z,102350.62
2018-09-28T11:24:13.680Z,102359.51
2018-09-28T11:26:42.241Z,102360.28
2018-09-28T11:29:11.345Z,102365.87
2018-09-28T11:31:39.818Z,102375.27
2018-09-28T11:34:08.643Z,102367.75
2018-09-28T11:36:37.133Z,102374.55
2018-09-28T11:39:07.087Z,102374.68
2018-09-28T11:41:35.613Z,102365.98
2018-09-28T11:44:05.148Z,102375.01
2018-09-28T11:46:33.675Z,102375.76
2018-09-28T11:49:03.841Z,102370.81
2018-09-28T11:51:32.627Z,102365.45
2018-09-28T11:54:04.173Z,102373.10
2018-09-28T11:56:32.680Z,102377.83
2018-09-28T11:59:02.681Z,102374.16
2018-09-28T12:01:31.232Z,102371.76
2018-09-28T12:03:59.809Z,102374.98
2018-09-28T12:06:28.408Z,102385.30
2018-09-28T12:08:56.976Z,102386.53
2018-09-28T12:11:25.521Z,102390.91
2018-09-28T12:13:54.111Z,102386.07
2018-09-28T12:16:22.628Z,102381.20
2018-09-28T12:18:51.225Z,102379.77
2018-09-28T12:21:19.678Z,102382.95
2018-09-28T12:23:48.318Z,102383.45
2018-09-28T12:26:16.885Z,102379.72
2018-09-28T12:28:45.434Z,102371.19
2018-09-28T12:31:13.973Z,102373.72
2018-09-28T12:33:42.544Z,102369.36
2018-09-28T12:36:11.185Z,102374.92
2018-09-28T12:38:39.762Z,102372.87
2018-09-28T12:41:08.331Z,102376.02
2018-09-28T12:43:36.867Z,102374.06
2018-09-28T12:46:06.342Z,102373.19
2018-09-28T12:48:34.874Z,102372.77
2018-09-28T12:51:05.075Z,102366.78
2018-09-28T12:53:33.636Z,102367.31
2018-09-28T12:56:03.701Z,102365.02
2018-09-28T12:58:32.209Z,102357.64
2018-09-28T13:01:00.792Z,102378.87
2018-09-28T13:03:30.383Z,102353.82
2018-09-28T13:05:58.926Z,102362.22
2018-09-28T13:08:27.558Z,102365.44
2018-09-28T13:10:56.022Z,102368.55
2018-09-28T13:13:24.578Z,102371.22
2018-09-28T13:15:53.217Z,102370.35
2018-09-28T13:18:21.744Z,102379.21
2018-09-28T13:20:50.469Z,102371.27
2018-09-28T13:23:18.992Z,102364.42
2018-09-28T13:25:47.534Z,102368.39
2018-09-28T13:28:16.046Z,102370.25
2018-09-28T13:30:45.329Z,102361.92
2018-09-28T13:33:14.109Z,102356.52
2018-09-28T13:35:42.710Z,102357.55
2018-09-28T13:38:11.359Z,102366.05
2018-09-28T13:40:39.829Z,102359.95
2018-09-28T13:43:08.355Z,102363.05
2018-09-28T13:45:36.914Z,102362.68
2018-09-28T13:48:05.442Z,102366.91
2018-09-28T13:50:34.033Z,102366.31
2018-09-28T13:53:04.401Z,102368.67
2018-09-28T13:55:32.956Z,102376.83
2018-09-28T13:58:03.039Z,102380.52
2018-09-28T14:00:31.569Z,102399.11
2018-09-28T14:03:00.104Z,102393.23
2018-09-28T14:05:28.717Z,102395.46
2018-09-28T14:07:57.231Z,102399.56
2018-09-28T14:10:25.911Z,102399.55
2018-09-28T14:12:54.288Z,102399.77
2018-09-28T14:15:22.868Z,102397.20
2018-09-28T14:17:51.569Z,102415.44
2018-09-28T14:20:20.500Z,102402.11
2018-09-28T14:22:49.168Z,102411.65
2018-09-28T14:25:17.518Z,102416.86
2018-09-28T14:27:46.106Z,102415.23
2018-09-28T14:30:14.689Z,102411.32
2018-09-28T14:32:43.313Z,102416.05
2018-09-28T14:35:11.731Z,102411.69
2018-09-28T14:37:40.636Z,102407.24
2018-09-28T14:40:09.657Z,102419.97
2018-09-28T14:42:38.333Z,102418.23
2018-09-28T14:45:06.984Z,102411.29
2018-09-28T14:47:35.797Z,102413.34
2018-09-28T14:50:05.322Z,102428.33
2018-09-28T14:52:33.922Z,102414.08
2018-09-28T14:55:03.869Z,102419.70
2018-09-28T14:57:33.616Z,102415.95
2018-09-28T15:00:07.397Z,102413.34
2018-09-28T15:02:35.952Z,102414.20
2018-09-28T15:05:09.619Z,102421.94
2018-09-28T15:07:38.163Z,102433.14
2018-09-28T15:10:06.713Z,102424.45
2018-09-28T15:12:35.345Z,102424.44
2018-09-28T15:15:05.258Z,102421.05
2018-09-28T15:17:33.795Z,102419.91
2018-09-28T15:20:05.315Z,102430.61
2018-09-28T15:22:33.842Z,102429.87
2018-09-28T15:25:05.166Z,102431.23
2018-09-28T15:27:33.675Z,102435.73
2018-09-28T15:30:03.794Z,102431.30
2018-09-28T15:32:32.489Z,102438.84
2018-09-28T15:35:04.299Z,102439.48
2018-09-28T15:37:33.299Z,102435.27
2018-09-28T15:40:03.534Z,102437.08
2018-09-28T15:42:32.050Z,102453.19
2018-09-28T15:45:00.545Z,102450.32
2018-09-28T15:47:29.108Z,102457.94
2018-09-28T15:49:57.664Z,102445.78
2018-09-28T15:52:26.231Z,102457.84
2018-09-28T15:54:54.881Z,102465.13
2018-09-28T15:57:23.386Z,102468.28
2018-09-28T15:59:52.458Z,102471.67
2018-09-28T16:02:21.346Z,102464.16
2018-09-28T16:04:49.843Z,102473.69
2018-09-28T16:07:18.709Z,102485.23
2018-09-28T16:09:47.245Z,102476.97
2018-09-28T16:12:15.829Z,102481.34
2018-09-28T16:14:44.340Z,102486.17
2018-09-28T16:17:12.882Z,102486.17
2018-09-28T16:19:41.542Z,102482.04
2018-09-28T16:22:10.053Z,102483.14
2018-09-28T16:24:38.828Z,102491.77
2018-09-28T16:27:07.683Z,102485.61
2018-09-28T16:29:36.196Z,102480.27
2018-09-28T16:32:05.708Z,102478.24
2018-09-28T16:34:34.228Z,102487.02
2018-09-28T16:37:04.799Z,102489.00
2018-09-28T16:39:34.618Z,102490.45
2018-09-28T16:42:05.055Z,102491.62
2018-09-28T16:44:33.664Z,102496.66
2018-09-28T16:47:03.685Z,102496.73
2018-09-28T16:49:32.330Z,102510.42
2018-09-28T16:52:00.825Z,102508.99
2018-09-28T16:54:29.337Z,102510.84
2018-09-28T16:56:58.356Z,102519.03
2018-09-28T16:59:26.922Z,102518.33
2018-09-28T17:01:55.424Z,102523.73
2018-09-28T17:04:24.031Z,102530.06
2018-09-28T17:06:52.549Z,102532.23
2018-09-28T17:09:21.294Z,102535.58
2018-09-28T17:11:49.744Z,102543.14
2018-09-28T17:14:19.364Z,102550.56
2018-09-28T17:16:47.919Z,102557.09
2018-09-28T17:19:16.432Z,102554.66
2018-09-28T17:21:44.998Z,102562.03
2018-09-28T17:24:13.502Z,102567.06
2018-09-28T17:26:42.464Z,102570.41
2018-09-28T17:29:11.022Z,102576.08
2018-09-28T17:31:39.641Z,102584.72
2018-09-28T17:34:08.168Z,102592.05
2018-09-28T17:36:37.090Z,102587.10
2018-09-28T17:39:08.893Z,102601.38
2018-09-28T17:41:37.606Z,102596.92
2018-09-28T17:44:06.243Z,102602.80
2018-09-28T17:46:34.997Z,102597.30
2018-09-28T17:49:05.721Z,102599.44
2018-09-28T17:51:34.261Z,102606.50
2018-09-28T17:54:04.948Z,102609.80
2018-09-28T17:56:34.462Z,102618.03
2018-09-28T17:59:04.918Z,102612.22
2018-09-28T18:01:33.441Z,102612.23
2018-09-28T18:04:03.098Z,102621.64
2018-09-28T18:06:31.993Z,102626.94
2018-09-28T18:09:00.494Z,102630.16
2018-09-28T18:11:29.005Z,102635.71
2018-09-28T18:13:57.588Z,102642.07
2018-09-28T18:16:26.139Z,102634.09
2018-09-28T18:18:54.693Z,102633.33
2018-09-28T18:21:23.251Z,102637.59
2018-09-28T18:23:51.973Z,102634.94
2018-09-28T18:26:20.477Z,102634.67
2018-09-28T18:28:49.024Z,102644.23
2018-09-28T18:31:17.512Z,102642.60
2018-09-28T18:33:46.015Z,102648.73
2018-09-28T18:36:14.900Z,102642.97
2018-09-28T18:38:43.458Z,102645.64
2018-09-28T18:41:12.030Z,102643.45
2018-09-28T18:43:40.581Z,102639.17
2018-09-28T18:46:09.202Z,102646.87
2018-09-28T18:48:37.773Z,102650.54
2018-09-28T18:51:06.361Z,102652.97
2018-09-28T18:53:35.369Z,102654.70
2018-09-28T18:56:06.685Z,102652.55
2018-09-28T18:58:35.313Z,102649.28
2018-09-28T19:01:05.201Z,102658.20
2018-09-28T19:03:33.910Z,102655.62
2018-09-28T19:06:03.789Z,102668.81
2018-09-28T19:08:32.365Z,102672.80
2018-09-28T19:11:00.969Z,102675.24
2018-09-28T19:13:29.540Z,102678.29
2018-09-28T19:15:58.454Z,102681.41
2018-09-28T19:18:27.033Z,102675.02
2018-09-28T19:20:55.801Z,102668.19
2018-09-28T19:23:24.400Z,102660.48
2018-09-28T19:25:53.752Z,102658.59
2018-09-28T19:28:22.488Z,102666.55
2018-09-28T19:30:51.139Z,102671.33
2018-09-28T19:33:19.650Z,102677.69
2018-09-28T19:35:48.351Z,102680.74
2018-09-28T19:38:17.038Z,102690.91
2018-09-28T19:40:45.567Z,102691.67
2018-09-28T19:43:14.137Z,102690.00
2018-09-28T19:45:42.731Z,102695.82
2018-09-28T19:48:11.450Z,102695.33
2018-09-28T19:50:40.127Z,102696.37
2018-09-28T19:53:08.659Z,102693.52
2018-09-28T19:55:37.232Z,102703.98
2018-09-28T19:58:06.010Z,102699.27
2018-09-28T20:00:34.994Z,102703.52
2018-09-28T20:03:05.691Z,102701.31
2018-09-28T20:05:34.339Z,102703.33
2018-09-28T20:08:04.532Z,102706.56
2018-09-28T20:10:33.492Z,102710.97
2018-09-28T20:13:04.646Z,102708.92
2018-09-28T20:15:33.162Z,102717.84
2018-09-28T20:18:03.156Z,102713.12
2018-09-28T20:20:31.702Z,102714.89
2018-09-28T20:23:00.211Z,102717.27
2018-09-28T20:25:28.820Z,102718.13
2018-09-28T20:27:57.375Z,102719.33
2018-09-28T20:30:26.138Z,102721.70
2018-09-28T20:32:54.647Z,102721.86
2018-09-28T20:35:23.155Z,102736.52
2018-09-28T20:37:51.886Z,102744.61
2018-09-28T20:40:20.599Z,102742.06
2018-09-28T20:42:49.203Z,102740.03
2018-09-28T20:45:17.807Z,102746.46
2018-09-28T20:47:46.310Z,102749.98
2018-09-28T20:50:14.932Z,102751.69
2018-09-28T20:52:44.070Z,102752.34
2018-09-28T20:55:12.612Z,102745.92
2018-09-28T20:57:41.248Z,102741.86
2018-09-28T21:00:09.775Z,102749.75
2018-09-28T21:02:39.512Z,102748.44
2018-09-28T21:05:07.681Z,102749.39
2018-09-28T21:07:36.360Z,102754.45
2018-09-28T21:10:05.165Z,102751.93
2018-09-28T21:12:33.894Z,102748.84
2018-09-28T21:15:03.380Z,102750.22
2018-09-28T21:17:31.917Z,102751.17
2018-09-28T21:20:00.425Z,102748.80
2018-09-28T21:22:28.934Z,102754.83
2018-09-28T21:24:57.423Z,102747.39
2018-09-28T21:27:26.322Z,102744.64
2018-09-28T21:29:54.829Z,102747.33
2018-09-28T21:32:23.333Z,102743.67
2018-09-28T21:34:51.896Z,102750.52
2018-09-28T21:37:20.396Z,102755.30
2018-09-28T21:39:48.930Z,102762.22
2018-09-28T21:42:17.455Z,102761.81
2018-09-28T21:44:45.987Z,102757.19
2018-09-28T21:47:14.489Z,102750.46
2018-09-28T21:49:43.022Z,102754.38
2018-09-28T21:52:11.573Z,102750.66
2018-09-28T21:54:44.945Z,102751.23
2018-09-28T21:57:13.441Z,102746.52
2018-09-28T21:59:42.381Z,102747.81
2018-09-28T22:02:11.004Z,102753.06
2018-09-28T22:04:39.529Z,102747.67
2018-09-28T22:07:08.030Z,102746.27
2018-09-28T22:09:36.560Z,102753.97
2018-09-28T22:12:06.181Z,102753.98
2018-09-28T22:14:34.697Z,102757.58
2018-09-28T22:17:04.437Z,102762.33
2018-09-28T22:19:33.027Z,102762.52
2018-09-28T22:22:03.380Z,102765.32
2018-09-28T22:24:32.014Z,102773.62
2018-09-28T22:27:00.565Z,102768.19
2018-09-28T22:29:29.076Z,102764.34
2018-09-28T22:31:57.721Z,102766.94
2018-09-28T22:34:26.570Z,102770.23
2018-09-28T22:36:55.326Z,102762.03
2018-09-28T22:39:23.846Z,102756.00
2018-09-28T22:41:52.387Z,102760.38
2018-09-28T22:44:20.885Z,102757.56
2018-09-28T22:46:49.370Z,102767.27
2018-09-28T22:49:18.955Z,102774.31
2018-09-28T22:51:47.589Z,102775.27
2018-09-28T22:54:16.126Z,102779.58
2018-09-28T22:56:44.616Z,102782.33
2018-09-28T22:59:13.296Z,102777.48
2018-09-28T23:01:42.434Z,102775.45
2018-09-28T23:04:10.938Z,102763.59
2018-09-28T23:06:39.974Z,102760.91
2018-09-28T23:09:09.241Z,102757.81
2018-09-28T23:11:38.033Z,102750.48
2018-09-28T23:14:06.573Z,102754.26
2018-09-28T23:16:36.871Z,102760.45
2018-09-28T23:19:05.357Z,102759.41
2018-09-28T23:21:33.935Z,102752.03
2018-09-28T23:24:03.754Z,102752.56
2018-09-28T23:26:32.383Z,102751.77
2018-09-28T23:29:00.948Z,102756.19
2018-09-28T23:31:29.468Z,102758.02
2018-09-28T23:33:58.009Z,102764.15
2018-09-28T23:36:26.700Z,102757.71
2018-09-28T23:38:55.170Z,102764.64
2018-09-28T23:41:23.647Z,102768.02
2018-09-28T23:43:52.151Z,102760.52
2018-09-28T23:46:20.878Z,102757.33
2018-09-28T23:48:49.411Z,102755.73
2018-09-28T23:51:17.908Z,102759.07
2018-09-28T23:53:46.444Z,102762.45
2018-09-28T23:56:14.969Z,102772.78
2018-09-28T23:58:43.520Z,102775.36
